Pagrindinis puslapis
METAR-TAF:

METAR-TAF

Oro uostai :

Antofagasta, Čilė

platuma: 23-26S, ilguma: 070-26W, Aukštis: 135 m

Dabartinis oras

Ataskaita buvo paskelbta 15 minutes, ne 12:00 UTC
Vėjas 13 kt iš Pietų/Pietvakarių
Temperatūra 13°C
Drėgmė 72%
Slėgis 1019 hPa
Matomumas 10 km arba daugiau
Apsiniaukę ne aukštis 2300 ft

METAR: SCFA 171200Z 21013KT 9999 OVC023 13/08 Q1019 NOSIG

Laikas: 09:15 (12:15 UTC)

Prognozė

Ataskaita buvo paskelbta 1 valandą ir 55 minutes, ne 10:20 UTC
Prognozė galioja nuo 17 metu 12 UTC su 18 metu 12 UTC
Vėjas 7 kt iš Pietų/Pietvakarių
Matomumas 10 km arba daugiau
Su prošvaistėmis ne aukštis 1900 ft
Tapsmas
nuo 17 metu 16 UTC su 17 metu 18 UTC
Vėjas 17 kt iš Pietų/Pietvakarių
Mažai debesys ne aukštis 1500 ft
Tapsmas
nuo 18 metu 02 UTC su 18 metu 04 UTC
Vėjas 7 kt iš Pietų
Su prošvaistėmis ne aukštis 1100 ft

TAF: SCFA 171020Z 1712/1812 21007KT 9999 BKN019 TX16/1718Z TN12/1806Z BECMG 1716/1718 21017KT FEW015 BECMG 1802/1804 18007KT BKN011

Orai ataskaitas ir orų prognozės (METAR, TAF).

turimą stotys yra geltonos ir raudonos taškus žemėlapyje.

Perkelti pele per norėdami pamatyti stoties vardą.

Tada spustelėkite, norėdami matyti oro stebėjimo ir prognozės.

Norėdami pakeisti žemėlapį: spustelėkite ant žalios mygtukų su juodo kryžiaus žemyn,; žalią mygtuką su brūkšneliu, jei norite nutolinti; arba žalių rodyklių gretimoms žemėlapius.


METAR-TAF: